Time;durP1;ratioP1;P1;durP2;ratioP2;P2;SDS_P1;SDS_P2;PMS_P1;PMS_P2;Temp;Humidity;BMP_temperature;BMP_pressure;BME280_temperature;BME280_humidity;BME280_pressure;Samples;Min_cycle;Max_cycle;Signal;HPM_P1;HPM_P2
2023/05/26 00:01:20;;;;;;;11.00;9.30;;;;;;;15.91;71.96;100678.42;131024;1251;107563;-74
2023/05/26 00:04:26;;;;;;;13.50;9.80;;;;;;;15.89;71.87;100682.55;130999;1264;107358;-74
2023/05/26 00:07:31;;;;;;;11.50;10.10;;;;;;;15.88;72.43;100681.15;130976;1257;107492;-73
2023/05/26 00:10:37;;;;;;;13.80;11.00;;;;;;;15.82;72.62;100683.02;131089;1253;107967;-73
2023/05/26 00:13:43;;;;;;;14.80;11.80;;;;;;;15.71;74.14;100682.13;130947;1250;107547;-73
2023/05/26 00:16:48;;;;;;;13.50;10.90;;;;;;;15.54;74.70;100682.64;130919;1251;107259;-75
2023/05/26 00:19:54;;;;;;;12.50;10.90;;;;;;;15.37;75.98;100685.43;131017;1256;107391;-73
2023/05/26 00:22:59;;;;;;;14.00;11.30;;;;;;;15.23;75.47;100683.45;131182;1254;107558;-74
2023/05/26 00:26:05;;;;;;;13.80;10.70;;;;;;;15.17;75.33;100684.27;131046;1250;107526;-75
2023/05/26 00:29:10;;;;;;;12.80;11.00;;;;;;;15.13;75.94;100689.36;131183;1264;107545;-73
2023/05/26 00:32:17;;;;;;;13.30;11.00;;;;;;;15.10;76.20;100694.22;131159;1257;107468;-74
2023/05/26 00:35:22;;;;;;;14.60;11.90;;;;;;;15.07;77.66;100698.45;130994;1250;107259;-73
2023/05/26 00:38:28;;;;;;;16.10;11.10;;;;;;;15.03;77.23;100699.63;131037;1264;107515;-74
2023/05/26 00:41:33;;;;;;;12.00;10.70;;;;;;;15.02;77.36;100699.20;131063;1255;107534;-74
2023/05/26 00:44:39;;;;;;;13.20;11.10;;;;;;;15.05;76.42;100696.17;131181;1262;107340;-74
2023/05/26 00:47:44;;;;;;;13.20;11.40;;;;;;;15.10;76.82;100700.66;130960;1259;106432;-74
2023/05/26 00:50:50;;;;;;;11.30;10.10;;;;;;;15.09;76.97;100703.05;130978;1255;107416;-74
2023/05/26 00:53:56;;;;;;;13.50;11.60;;;;;;;15.07;77.91;100701.10;130960;1256;107536;-74
2023/05/26 00:57:02;;;;;;;11.90;10.70;;;;;;;15.05;77.40;100700.54;130977;1256;107446;-75
2023/05/26 01:00:11;;;;;;;13.00;10.90;;;;;;;15.03;77.40;100695.94;130915;1257;107374;-75
2023/05/26 01:03:18;;;;;;;13.30;11.20;;;;;;;15.03;78.25;100699.70;131025;1256;105501;-74
2023/05/26 01:06:24;;;;;;;12.20;10.10;;;;;;;15.03;77.58;100698.06;130978;1256;107376;-74
2023/05/26 01:09:29;;;;;;;12.70;10.90;;;;;;;15.05;77.61;100702.46;131071;1256;107264;-74
2023/05/26 01:12:40;;;;;;;12.40;11.10;;;;;;;15.06;77.74;100703.09;131051;1256;107450;-74
2023/05/26 01:15:51;;;;;;;14.60;11.00;;;;;;;15.05;78.06;100701.89;131009;1256;107488;-74
2023/05/26 01:19:02;;;;;;;12.40;10.60;;;;;;;14.99;77.65;100699.08;131013;1250;107496;-75
2023/05/26 01:22:29;;;;;;;10.60;9.40;;;;;;;15.00;77.35;100701.30;131138;1256;107253;-69
2023/05/26 01:25:46;;;;;;;10.50;9.30;;;;;;;15.06;77.25;100697.14;130930;1259;108081;-73
2023/05/26 01:28:56;;;;;;;11.20;9.90;;;;;;;15.14;76.89;100695.21;131132;1255;107520;-73
2023/05/26 01:32:09;;;;;;;12.30;9.20;;;;;;;15.20;76.94;100690.21;131253;1255;106583;-72
2023/05/26 01:35:15;;;;;;;11.60;10.40;;;;;;;15.21;76.69;100693.37;131301;1250;107483;-72
2023/05/26 01:38:21;;;;;;;11.20;9.50;;;;;;;15.22;76.42;100689.47;130843;1257;108082;-73
2023/05/26 01:41:33;;;;;;;9.40;8.40;;;;;;;15.21;76.47;100691.35;131164;1251;107533;-72
2023/05/26 01:44:46;;;;;;;11.70;10.40;;;;;;;15.20;76.47;100693.62;130950;1251;107271;-71
2023/05/26 01:47:53;;;;;;;12.30;10.00;;;;;;;15.18;76.97;100691.54;131199;1264;107600;-73
2023/05/26 01:51:02;;;;;;;10.60;9.50;;;;;;;15.13;77.08;100688.83;130954;1258;106663;-73
2023/05/26 01:54:10;;;;;;;12.00;9.60;;;;;;;15.13;77.16;100688.36;131048;1256;107507;-74
2023/05/26 01:57:17;;;;;;;10.80;9.70;;;;;;;15.10;77.22;100689.14;131121;1254;107528;-71
2023/05/26 02:00:27;;;;;;;10.60;9.30;;;;;;;15.12;77.27;100686.15;130986;1256;107572;-71
2023/05/26 02:03:32;;;;;;;9.40;8.40;;;;;;;15.10;76.74;100683.87;130874;1259;107602;-71
2023/05/26 02:06:38;;;;;;;12.00;9.40;;;;;;;15.08;76.49;100691.70;130892;1256;107363;-71
2023/05/26 02:09:45;;;;;;;10.90;9.70;;;;;;;15.08;76.41;100704.70;131070;1256;107349;-72
2023/05/26 02:12:50;;;;;;;12.30;10.30;;;;;;;15.03;76.57;100711.86;130961;1265;107507;-72
2023/05/26 02:15:56;;;;;;;11.50;10.30;;;;;;;14.99;77.21;100717.45;130897;1267;107524;-71
2023/05/26 02:19:01;;;;;;;11.50;10.30;;;;;;;14.97;77.36;100723.23;130938;1256;107270;-72
2023/05/26 02:22:08;;;;;;;11.30;10.10;;;;;;;15.04;77.43;100724.83;130901;1256;107403;-71
2023/05/26 02:25:13;;;;;;;10.80;9.60;;;;;;;15.08;77.58;100723.16;130931;1263;107412;-71
2023/05/26 02:28:19;;;;;;;11.80;9.90;;;;;;;15.10;77.99;100726.50;130951;1265;107523;-71
2023/05/26 02:31:25;;;;;;;12.70;10.80;;;;;;;15.09;78.53;100727.98;130857;1256;106550;-71
2023/05/26 02:34:30;;;;;;;14.00;12.50;;;;;;;15.08;79.14;100727.72;130976;1259;108088;-72
2023/05/26 02:37:36;;;;;;;13.30;11.10;;;;;;;15.08;80.58;100725.94;130941;1259;107521;-71
2023/05/26 02:40:41;;;;;;;14.30;11.60;;;;;;;15.06;80.04;100719.27;130987;1256;107509;-71
2023/05/26 02:43:47;;;;;;;13.00;11.20;;;;;;;15.07;79.96;100718.01;130964;1266;107447;-72
2023/05/26 02:46:52;;;;;;;14.30;11.40;;;;;;;15.09;79.97;100716.15;130834;1256;107352;-73
2023/05/26 02:49:58;;;;;;;12.20;10.70;;;;;;;15.10;80.22;100718.23;130973;1257;107451;-72
2023/05/26 02:53:03;;;;;;;12.10;10.70;;;;;;;15.13;79.62;100715.61;131067;1256;107543;-71
2023/05/26 02:56:10;;;;;;;13.50;11.50;;;;;;;15.19;80.03;100713.64;130994;1255;107654;-71
2023/05/26 02:59:15;;;;;;;14.20;11.50;;;;;;;15.23;80.49;100714.48;130956;1253;107431;-71
2023/05/26 03:02:21;;;;;;;15.00;11.80;;;;;;;15.21;80.36;100713.98;130860;1259;107285;-71
2023/05/26 03:05:26;;;;;;;13.00;10.50;;;;;;;15.19;80.34;100708.61;130834;1256;155961;-71
2023/05/26 03:08:32;;;;;;;12.80;11.40;;;;;;;15.19;80.52;100711.96;131003;1250;107329;-71
2023/05/26 03:11:38;;;;;;;11.80;10.50;;;;;;;15.18;80.45;100713.61;130995;1256;107249;-72
2023/05/26 03:14:44;;;;;;;13.30;11.70;;;;;;;15.20;80.16;100713.50;131120;1256;107436;-70
2023/05/26 03:17:51;;;;;;;15.30;12.30;;;;;;;15.26;80.12;100706.88;131009;1257;108051;-71
2023/05/26 03:20:58;;;;;;;12.90;11.20;;;;;;;15.27;80.06;100709.65;131098;1251;107529;-71
2023/05/26 03:24:04;;;;;;;14.80;11.40;;;;;;;15.28;80.20;100715.84;130916;1256;107540;-70
2023/05/26 03:27:10;;;;;;;15.50;11.00;;;;;;;15.30;80.08;100717.05;130928;1266;107553;-70
2023/05/26 03:30:15;;;;;;;11.80;10.40;;;;;;;15.42;80.22;100718.29;130831;1256;108090;-70
2023/05/26 03:33:22;;;;;;;11.30;10.10;;;;;;;15.53;80.03;100722.42;130888;1263;107359;-69
2023/05/26 03:36:29;;;;;;;12.60;11.40;;;;;;;15.66;79.86;100722.78;130991;1256;108109;-69
2023/05/26 03:39:39;;;;;;;12.30;11.00;;;;;;;15.77;79.70;100726.31;131076;1255;107415;-70
2023/05/26 03:42:45;;;;;;;12.60;10.10;;;;;;;15.84;79.68;100728.98;131007;1251;107795;-70
2023/05/26 03:45:51;;;;;;;11.90;9.90;;;;;;;15.89;79.70;100728.88;130978;1256;106943;-74
2023/05/26 03:48:57;;;;;;;11.10;9.90;;;;;;;15.94;79.65;100730.48;131070;1256;107552;-74
2023/05/26 03:52:03;;;;;;;12.00;10.80;;;;;;;16.02;79.87;100727.95;130938;1256;106709;-72
2023/05/26 03:55:11;;;;;;;11.10;10.00;;;;;;;16.13;79.71;100727.92;131039;1257;107483;-72
2023/05/26 03:58:17;;;;;;;12.60;11.20;;;;;;;16.22;79.60;100730.16;130959;1256;107542;-72
2023/05/26 04:01:22;;;;;;;13.30;11.20;;;;;;;16.27;79.54;100733.52;131190;1254;107611;-71
2023/05/26 04:04:28;;;;;;;11.50;10.30;;;;;;;16.32;79.45;100732.93;130938;1264;107564;-70
2023/05/26 04:07:33;;;;;;;11.10;9.30;;;;;;;16.33;79.47;100736.02;130873;1256;108072;-74
2023/05/26 04:10:39;;;;;;;12.00;10.90;;;;;;;16.37;79.55;100738.90;130882;1264;106492;-74
2023/05/26 04:13:45;;;;;;;16.90;12.10;;;;;;;16.31;79.59;100743.26;130912;1251;107539;-73
2023/05/26 04:16:50;;;;;;;15.10;11.50;;;;;;;16.20;79.81;100743.97;130924;1257;107344;-75
2023/05/26 04:19:56;;;;;;;12.60;11.30;;;;;;;16.24;79.78;100747.83;131027;1261;107827;-74
2023/05/26 04:23:02;;;;;;;13.80;12.20;;;;;;;16.33;79.67;100747.77;130965;1256;107527;-76
2023/05/26 04:26:08;;;;;;;13.20;11.70;;;;;;;16.31;79.84;100749.69;131030;1256;107477;-74
2023/05/26 04:29:34;;;;;;;14.30;10.90;;;;;;;16.16;79.87;100747.21;130672;1257;107536;-76
2023/05/26 04:32:44;;;;;;;12.40;11.10;;;;;;;16.14;80.06;100747.05;130972;1255;107459;-76
2023/05/26 04:36:19;;;;;;;12.10;10.50;;;;;;;16.19;80.17;100748.12;130915;1255;107528;-76
2023/05/26 04:39:25;;;;;;;13.90;10.80;;;;;;;16.24;79.98;100747.85;130952;1250;106052;-76
2023/05/26 04:42:33;;;;;;;12.90;9.60;;;;;;;16.26;80.05;100751.38;130993;1264;107420;-76
2023/05/26 04:45:40;;;;;;;11.70;10.20;;;;;;;16.36;79.96;100751.67;131048;1266;107383;-77
2023/05/26 04:48:47;;;;;;;12.70;11.00;;;;;;;16.52;79.76;100756.11;131091;1264;107478;-76
2023/05/26 04:51:57;;;;;;;11.30;10.10;;;;;;;16.59;79.48;100756.66;131059;1264;107534;-77
2023/05/26 04:55:03;;;;;;;11.20;10.00;;;;;;;16.62;79.30;100756.95;131093;1251;107486;-76
2023/05/26 04:58:08;;;;;;;10.20;8.50;;;;;;;16.60;79.28;100756.77;130916;1251;106546;-75
2023/05/26 05:01:16;;;;;;;12.20;9.90;;;;;;;16.68;79.20;100755.85;131818;1256;108176;-76
2023/05/26 05:04:30;;;;;;;12.10;9.60;;;;;;;16.79;78.79;100757.79;131041;1264;107376;-75
2023/05/26 05:07:38;;;;;;;15.00;10.40;;;;;;;17.00;78.72;100750.66;130953;1256;107396;-75
2023/05/26 05:10:44;;;;;;;10.70;9.50;;;;;;;17.15;77.61;100750.06;131016;1257;107422;-75
2023/05/26 05:13:49;;;;;;;11.90;9.80;;;;;;;17.23;77.09;100750.21;130978;1264;107532;-77
2023/05/26 05:16:55;;;;;;;11.70;9.50;;;;;;;17.26;76.83;100745.34;130925;1257;107432;-76
2023/05/26 05:20:01;;;;;;;12.30;9.60;;;;;;;17.28;76.79;100742.45;130981;1266;107502;-75
2023/05/26 05:23:07;;;;;;;12.70;8.70;;;;;;;17.32;76.88;100739.43;130806;1259;107462;-75
2023/05/26 05:26:13;;;;;;;10.10;8.80;;;;;;;17.45;76.28;100739.62;130928;1251;107550;-75
2023/05/26 05:29:19;;;;;;;10.80;8.70;;;;;;;17.55;76.12;100736.81;130988;1257;107284;-75
2023/05/26 05:32:28;;;;;;;8.90;8.00;;;;;;;17.62;75.73;100743.17;131004;1256;107438;-75
2023/05/26 05:35:33;;;;;;;11.10;9.70;;;;;;;17.76;76.03;100742.59;130983;1251;107428;-75
2023/05/26 05:38:39;;;;;;;11.20;9.40;;;;;;;17.76;74.90;100744.46;130957;1255;106685;-75
2023/05/26 05:41:44;;;;;;;9.70;8.20;;;;;;;17.74;75.70;100740.79;130926;1265;107516;-75
2023/05/26 05:44:50;;;;;;;10.20;8.60;;;;;;;17.82;74.24;100746.70;130883;1251;107295;-75
2023/05/26 05:47:58;;;;;;;12.70;9.20;;;;;;;17.77;74.85;100752.36;130889;1257;107419;-76
2023/05/26 06:05:48;;;;;;;9.60;8.30;;;;;;;18.56;73.21;100760.21;128133;1285;648327;-76
2023/05/26 06:08:53;;;;;;;9.60;8.40;;;;;;;18.54;71.96;100763.66;129937;1278;200024;-76
2023/05/26 06:11:59;;;;;;;9.60;8.00;;;;;;;18.46;72.84;100761.13;130070;1265;107540;-77
2023/05/26 06:15:11;;;;;;;8.80;7.50;;;;;;;18.40;72.09;100756.23;130130;1266;107394;-78
2023/05/26 06:18:18;;;;;;;10.70;8.30;;;;;;;18.34;72.10;100756.67;130062;1266;107808;-77
2023/05/26 06:21:23;;;;;;;11.00;8.40;;;;;;;18.27;71.75;100750.83;130125;1265;107525;-77
2023/05/26 06:24:32;;;;;;;11.80;8.20;;;;;;;18.22;72.19;100753.47;130134;1265;107449;-77
2023/05/26 06:27:38;;;;;;;9.50;7.90;;;;;;;18.23;72.11;100756.31;130255;1278;107389;-77
2023/05/26 06:30:44;;;;;;;9.10;6.70;;;;;;;18.20;71.25;100757.45;130298;1261;107247;-77
2023/05/26 06:34:09;;;;;;;9.30;6.80;;;;;;;18.20;70.60;100760.89;130213;1265;107502;-77
2023/05/26 06:37:14;;;;;;;9.50;6.50;;;;;;;18.18;70.26;100764.77;130194;1263;107539;-77
2023/05/26 06:40:20;;;;;;;9.00;6.60;;;;;;;18.18;70.94;100765.14;130190;1266;107430;-77
2023/05/26 06:43:26;;;;;;;8.60;6.80;;;;;;;18.30;70.67;100769.10;130140;1270;106494;-76
2023/05/26 06:46:32;;;;;;;8.50;6.70;;;;;;;18.39;70.25;100772.23;130148;1265;107464;-77
2023/05/26 06:49:37;;;;;;;8.30;6.90;;;;;;;18.36;69.75;100775.98;130163;1265;107302;-77
2023/05/26 06:52:51;;;;;;;10.20;6.90;;;;;;;18.30;69.01;100777.86;130112;1267;107514;-76
2023/05/26 06:55:57;;;;;;;7.20;6.20;;;;;;;18.32;70.12;100777.98;131086;1264;107525;-78
2023/05/26 06:59:02;;;;;;;9.40;7.00;;;;;;;18.44;68.98;100776.48;131142;1251;107388;-77
2023/05/26 07:02:08;;;;;;;10.10;6.70;;;;;;;18.44;69.16;100781.88;131266;1250;107250;-77
2023/05/26 07:05:13;;;;;;;7.70;6.60;;;;;;;18.55;69.70;100784.36;131108;1254;107528;-77
2023/05/26 07:08:19;;;;;;;8.60;6.10;;;;;;;18.65;68.44;100789.55;131303;1252;107521;-77
2023/05/26 07:11:25;;;;;;;10.00;6.50;;;;;;;18.67;68.59;100784.36;131346;1261;107391;-77
2023/05/26 07:14:33;;;;;;;7.80;6.60;;;;;;;18.68;66.65;100788.98;131133;1253;107446;-77
2023/05/26 07:17:39;;;;;;;8.80;7.00;;;;;;;18.63;67.29;100789.36;131166;1253;107538;-76
2023/05/26 07:20:44;;;;;;;10.70;7.20;;;;;;;18.66;68.02;100792.77;131142;1253;107573;-76
2023/05/26 07:23:51;;;;;;;8.70;7.10;;;;;;;18.82;68.03;100789.43;131216;1251;107447;-76
2023/05/26 07:26:57;;;;;;;10.20;8.40;;;;;;;18.91;67.49;100790.23;131171;1251;107479;-76
2023/05/26 07:30:02;;;;;;;8.40;6.60;;;;;;;19.02;67.15;100787.04;130991;1255;107525;-77
2023/05/26 07:33:08;;;;;;;9.60;7.20;;;;;;;19.11;66.20;100784.52;131165;1254;107572;-76
2023/05/26 07:36:14;;;;;;;8.80;6.60;;;;;;;19.10;66.50;100787.14;130981;1255;107639;-76
2023/05/26 07:39:19;;;;;;;10.10;7.10;;;;;;;19.23;67.77;100790.32;131146;1255;107529;-76
2023/05/26 07:42:25;;;;;;;9.50;7.20;;;;;;;19.31;66.00;100790.73;131077;1254;107606;-76
2023/05/26 07:45:30;;;;;;;9.60;6.40;;;;;;;19.37;66.68;100789.04;131135;1257;106563;-75
2023/05/26 07:48:36;;;;;;;7.50;5.60;;;;;;;19.59;67.19;100787.27;131093;1254;107516;-76
2023/05/26 07:51:41;;;;;;;7.70;5.60;;;;;;;19.82;66.16;100783.79;131154;1272;107535;-76
2023/05/26 07:54:47;;;;;;;6.40;5.70;;;;;;;19.79;63.94;100790.66;131369;1254;107482;-75
2023/05/26 07:57:52;;;;;;;7.60;4.80;;;;;;;19.66;63.88;100793.14;131391;1252;107314;-76
2023/05/26 08:00:58;;;;;;;5.90;4.50;;;;;;;19.52;63.58;100797.48;131109;1264;107357;-76
2023/05/26 08:04:04;;;;;;;8.50;5.40;;;;;;;19.46;62.24;100798.39;131236;1249;107579;-76
2023/05/26 08:07:09;;;;;;;9.90;5.80;;;;;;;19.41;61.08;100800.69;131097;1256;106490;-76
2023/05/26 08:10:15;;;;;;;7.60;4.50;;;;;;;19.44;62.93;100804.95;131144;1257;107488;-76
2023/05/26 08:13:20;;;;;;;6.00;3.90;;;;;;;19.58;62.92;100805.88;131165;1255;107389;-76
2023/05/26 08:16:26;;;;;;;6.70;4.70;;;;;;;19.72;61.10;100804.98;131235;1256;107517;-76
2023/05/26 08:19:31;;;;;;;7.30;4.30;;;;;;;19.65;59.12;100803.15;131127;1254;107412;-76
2023/05/26 08:22:37;;;;;;;6.50;4.40;;;;;;;19.72;62.43;100798.85;131104;1251;107544;-76
2023/05/26 08:25:44;;;;;;;6.60;4.50;;;;;;;19.96;62.73;100798.61;131100;1263;107210;-75
2023/05/26 08:28:50;;;;;;;6.70;5.00;;;;;;;20.12;61.01;100795.55;131113;1268;107648;-76
2023/05/26 08:31:56;;;;;;;9.10;5.30;;;;;;;20.00;58.72;100798.38;131066;1256;108369;-78
2023/05/26 08:35:01;;;;;;;7.30;5.00;;;;;;;19.95;59.17;100796.35;131130;1252;107499;-76
2023/05/26 08:38:07;;;;;;;7.70;4.70;;;;;;;19.94;58.52;100798.71;131071;1251;106053;-77
2023/05/26 08:41:16;;;;;;;8.40;4.90;;;;;;;19.91;59.46;100792.89;131102;1252;107206;-76
2023/05/26 08:44:22;;;;;;;9.90;4.20;;;;;;;19.94;59.49;100788.69;131347;1254;107266;-75
2023/05/26 08:47:31;;;;;;;8.60;5.10;;;;;;;20.07;59.72;100785.11;131251;1257;107808;-77
2023/05/26 08:50:37;;;;;;;7.70;4.70;;;;;;;20.08;57.82;100785.70;131043;1254;107519;-76
2023/05/26 08:53:45;;;;;;;8.90;5.00;;;;;;;19.96;56.14;100791.06;131174;1254;107430;-76
2023/05/26 08:56:52;;;;;;;7.20;4.40;;;;;;;19.79;56.06;100788.20;131253;1253;106951;-76
2023/05/26 08:59:58;;;;;;;9.70;4.80;;;;;;;19.92;58.31;100787.92;131287;1254;107499;-76
2023/05/26 09:03:03;;;;;;;8.00;4.50;;;;;;;20.00;55.27;100787.95;131253;1255;107239;-76
2023/05/26 09:06:09;;;;;;;7.70;4.00;;;;;;;20.05;56.71;100783.34;131422;1254;107671;-76
2023/05/26 09:09:15;;;;;;;10.90;4.10;;;;;;;20.25;57.10;100781.30;131414;1263;107243;-75
2023/05/26 09:12:22;;;;;;;8.50;4.40;;;;;;;20.30;57.79;100781.22;131175;1263;107405;-76
2023/05/26 09:15:27;;;;;;;6.50;4.10;;;;;;;20.44;56.44;100779.30;131118;1251;106538;-77
2023/05/26 09:18:33;;;;;;;9.40;4.60;;;;;;;20.40;54.31;100776.37;131166;1256;107343;-76
2023/05/26 09:21:38;;;;;;;7.40;3.90;;;;;;;20.41;56.51;100775.84;131226;1254;107560;-77
2023/05/26 09:24:49;;;;;;;8.00;3.80;;;;;;;20.62;56.68;100772.35;131246;1254;107332;-78
2023/05/26 09:28:02;;;;;;;8.50;3.70;;;;;;;20.65;55.55;100775.82;131368;1254;107254;-72
2023/05/26 09:31:11;;;;;;;7.00;3.60;;;;;;;20.74;55.93;100771.95;131081;1255;107098;-76
2023/05/26 09:34:21;;;;;;;8.20;3.50;;;;;;;20.78;54.74;100773.99;131134;1255;107493;-77
2023/05/26 09:37:29;;;;;;;8.20;3.80;;;;;;;20.89;55.67;100771.25;131156;1260;106232;-76
2023/05/26 09:40:35;;;;;;;8.30;3.60;;;;;;;21.06;55.47;100775.36;131347;1260;107518;-77
2023/05/26 09:43:40;;;;;;;7.10;3.30;;;;;;;21.13;55.19;100778.66;131420;1251;106429;-78
2023/05/26 09:46:47;;;;;;;9.20;3.60;;;;;;;21.17;55.02;100780.99;131463;1255;107489;-77
2023/05/26 09:50:02;;;;;;;8.40;4.10;;;;;;;21.17;55.03;100780.03;131427;1253;107529;-77
2023/05/26 09:53:10;;;;;;;6.30;3.30;;;;;;;21.18;53.31;100781.55;131419;1253;105686;-78
2023/05/26 09:56:20;;;;;;;8.40;3.90;;;;;;;21.10;53.67;100780.96;131347;1266;107244;-78
2023/05/26 09:59:32;;;;;;;7.60;4.50;;;;;;;21.11;53.91;100782.51;131113;1254;107278;-77
2023/05/26 10:02:40;;;;;;;7.60;3.80;;;;;;;21.14;53.44;100781.92;131043;1254;107407;-78
2023/05/26 10:05:47;;;;;;;7.20;4.20;;;;;;;21.12;52.65;100786.05;131110;1260;108200;-76
2023/05/26 10:08:57;;;;;;;8.30;3.70;;;;;;;21.01;51.26;100785.55;131082;1251;106604;-78
2023/05/26 10:12:05;;;;;;;8.70;4.00;;;;;;;20.85;50.00;100784.02;131206;1251;107405;-77
2023/05/26 10:15:12;;;;;;;8.60;3.90;;;;;;;20.60;50.31;100790.31;131178;1266;107208;-76
2023/05/26 10:18:17;;;;;;;9.10;3.60;;;;;;;20.65;52.46;100791.04;131021;1254;107752;-76
2023/05/26 10:21:27;;;;;;;7.50;4.10;;;;;;;20.78;52.30;100784.42;131103;1258;107572;-76
2023/05/26 10:24:39;;;;;;;6.10;3.60;;;;;;;20.82;50.35;100785.55;131079;1263;107141;-76
2023/05/26 10:27:52;;;;;;;6.70;3.90;;;;;;;20.67;49.68;100789.60;131180;1254;108697;-75
2023/05/26 10:31:01;;;;;;;7.80;4.10;;;;;;;20.62;49.18;100788.86;131041;1254;108808;-78
2023/05/26 10:34:15;;;;;;;8.30;3.50;;;;;;;20.56;50.32;100791.95;131087;1251;106459;-76
2023/05/26 10:37:21;;;;;;;8.50;3.50;;;;;;;20.61;50.92;100785.43;131245;1254;107382;-76
2023/05/26 10:40:42;;;;;;;7.10;3.50;;;;;;;20.52;47.96;100782.86;131076;1254;107103;-76
2023/05/26 10:43:47;;;;;;;6.40;3.40;;;;;;;20.50;50.52;100775.43;131059;1253;106446;-75
2023/05/26 10:47:05;;;;;;;7.50;3.10;;;;;;;20.60;49.19;100781.09;131184;1253;107491;-77
2023/05/26 10:50:12;;;;;;;5.90;2.80;;;;;;;20.56;49.09;100774.44;131100;1254;109395;-77
2023/05/26 10:53:23;;;;;;;5.60;2.80;;;;;;;20.65;49.46;100776.15;131132;1256;108714;-76
2023/05/26 10:56:41;;;;;;;5.60;2.80;;;;;;;20.77;47.29;100778.84;131086;1254;107884;-77
2023/05/26 10:59:50;;;;;;;7.10;3.00;;;;;;;20.62;45.09;100775.06;131113;1254;108099;-75
2023/05/26 11:02:55;;;;;;;8.10;2.90;;;;;;;20.59;47.25;100779.39;131106;1254;106840;-75
2023/05/26 11:06:01;;;;;;;7.60;2.70;;;;;;;20.75;47.22;100779.04;131143;1253;108547;-76
2023/05/26 11:09:09;;;;;;;5.40;2.80;;;;;;;20.81;46.61;100776.16;131085;1253;107403;-76
2023/05/26 11:12:16;;;;;;;11.20;6.20;;;;;;;20.79;43.92;100777.88;131320;1263;109143;-76
2023/05/26 11:15:30;;;;;;;6.00;3.10;;;;;;;20.77;45.87;100774.32;131026;1251;107508;-75
2023/05/26 11:18:36;;;;;;;5.70;2.90;;;;;;;20.75;42.77;100783.84;131215;1255;108562;-76
2023/05/26 11:21:42;;;;;;;7.20;3.00;;;;;;;20.63;42.99;100782.20;131131;1253;106522;-76
2023/05/26 11:24:50;;;;;;;5.70;3.30;;;;;;;20.63;44.06;100772.77;131053;1253;107964;-75
2023/05/26 11:27:56;;;;;;;4.30;2.40;;;;;;;20.67;42.13;100776.58;131131;1254;107534;-75
2023/05/26 11:31:11;;;;;;;6.70;2.70;;;;;;;20.65;40.47;100771.98;131199;1253;107417;-76
2023/05/26 11:34:16;;;;;;;6.00;2.60;;;;;;;20.45;38.65;100773.55;131277;1254;107512;-78
2023/05/26 11:37:24;;;;;;;5.80;2.40;;;;;;;20.40;40.27;100767.45;131128;1251;107513;-77
2023/05/26 11:40:32;;;;;;;5.40;2.50;;;;;;;20.49;40.43;100768.84;131142;1251;108537;-82
2023/05/26 11:43:38;;;;;;;6.00;3.60;;;;;;;20.59;41.37;100768.38;131196;1254;108470;-75
2023/05/26 11:46:46;;;;;;;8.20;4.00;;;;;;;20.74;41.29;100759.55;131335;1253;107542;-84
2023/05/26 11:49:52;;;;;;;5.80;2.70;;;;;;;20.72;40.49;100762.48;131245;1255;106455;-75
2023/05/26 11:52:57;;;;;;;6.40;2.80;;;;;;;20.70;39.89;100763.52;131031;1253;105730;-80
2023/05/26 11:56:05;;;;;;;7.70;3.60;;;;;;;20.72;40.32;100762.64;131358;1255;107897;-78
2023/05/26 11:59:11;;;;;;;5.40;3.10;;;;;;;20.79;42.22;100764.69;131426;1255;105891;-77
2023/05/26 12:02:18;;;;;;;5.40;2.90;;;;;;;20.84;40.04;100768.28;131314;1254;106840;-77
2023/05/26 12:05:26;;;;;;;10.00;3.70;;;;;;;20.85;41.62;100759.30;131396;1254;108766;-78
2023/05/26 12:08:42;;;;;;;7.00;2.60;;;;;;;20.95;41.79;100760.20;131296;1251;107375;-78
2023/05/26 12:11:49;;;;;;;4.10;2.50;;;;;;;21.03;41.23;100764.52;131266;1251;107539;-75
2023/05/26 12:15:05;;;;;;;7.40;3.10;;;;;;;20.96;39.57;100757.98;131375;1254;108544;-75
2023/05/26 12:18:11;;;;;;;6.90;2.20;;;;;;;20.82;39.57;100756.30;131438;1253;107559;-77
2023/05/26 12:21:18;;;;;;;5.10;2.50;;;;;;;20.77;40.16;100752.71;131063;1253;105970;-76
2023/05/26 12:24:35;;;;;;;6.60;2.60;;;;;;;20.83;41.47;100757.51;131412;1251;108602;-77
2023/05/26 12:27:41;;;;;;;5.10;2.40;;;;;;;20.87;41.30;100746.71;131137;1251;106576;-77
2023/05/26 12:30:47;;;;;;;5.20;2.40;;;;;;;20.90;41.55;100745.11;131206;1249;107496;-77
2023/05/26 12:33:52;;;;;;;6.30;2.60;;;;;;;20.93;41.38;100741.36;131094;1251;107213;-77
2023/05/26 12:36:58;;;;;;;6.50;2.80;;;;;;;20.94;41.61;100735.52;131184;1253;107540;-78
2023/05/26 12:40:05;;;;;;;6.00;2.60;;;;;;;20.96;41.94;100735.77;131301;1250;105771;-79
2023/05/26 12:43:10;;;;;;;6.30;2.60;;;;;;;20.81;40.77;100738.88;131459;1251;107286;-77
2023/05/26 12:46:16;;;;;;;5.30;2.70;;;;;;;20.73;41.49;100736.11;131295;1251;107163;-77
2023/05/26 12:49:21;;;;;;;6.80;3.80;;;;;;;20.70;41.50;100732.73;131191;1251;107509;-77
2023/05/26 12:52:27;;;;;;;6.90;2.50;;;;;;;20.74;41.28;100726.88;131197;1249;107571;-77
2023/05/26 12:55:32;;;;;;;5.10;2.50;;;;;;;20.72;41.41;100723.50;131238;1253;107438;-77
2023/05/26 12:58:40;;;;;;;5.60;2.60;;;;;;;20.72;41.92;100719.30;131425;1253;108468;-76
2023/05/26 13:01:46;;;;;;;5.70;2.40;;;;;;;20.81;41.71;100720.08;131242;1253;107371;-76
2023/05/26 13:04:53;;;;;;;8.10;3.10;;;;;;;20.84;41.14;100721.84;131080;1254;107377;-76
2023/05/26 13:07:59;;;;;;;6.00;2.50;;;;;;;20.86;40.95;100717.63;131119;1255;108345;-77
2023/05/26 13:11:05;;;;;;;6.80;2.40;;;;;;;20.82;40.69;100719.42;131231;1249;107435;-77
2023/05/26 13:14:11;;;;;;;6.30;2.80;;;;;;;20.84;41.17;100724.22;131241;1252;107267;-79
2023/05/26 13:17:18;;;;;;;5.10;2.10;;;;;;;20.90;41.69;100722.33;130912;1255;107486;-77
2023/05/26 13:20:24;;;;;;;4.70;2.30;;;;;;;20.96;41.64;100723.37;131094;1250;108562;-76
2023/05/26 13:23:30;;;;;;;6.50;2.70;;;;;;;21.05;41.32;100721.33;131368;1255;107719;-79
2023/05/26 13:26:36;;;;;;;6.10;2.50;;;;;;;21.02;39.85;100725.55;131142;1256;108617;-75
2023/05/26 13:29:41;;;;;;;5.70;2.50;;;;;;;20.97;40.88;100717.73;131095;1253;108652;-75
2023/05/26 13:32:48;;;;;;;6.90;2.50;;;;;;;21.00;40.87;100716.22;131142;1250;107339;-75
2023/05/26 13:35:54;;;;;;;6.40;2.60;;;;;;;20.95;39.41;100721.82;131127;1249;107388;-75
2023/05/26 13:38:59;;;;;;;5.90;2.30;;;;;;;20.81;38.82;100726.17;131093;1251;107896;-75
2023/05/26 13:42:05;;;;;;;4.20;2.60;;;;;;;20.76;40.14;100715.83;131258;1253;107532;-76
2023/05/26 13:45:13;;;;;;;6.30;2.60;;;;;;;20.81;39.37;100720.34;131380;1254;108767;-76
2023/05/26 13:48:18;;;;;;;4.70;2.70;;;;;;;20.79;39.76;100713.96;131328;1253;106467;-74
2023/05/26 13:51:24;;;;;;;6.80;2.30;;;;;;;20.86;39.62;100718.88;131131;1249;106859;-73
2023/05/26 13:54:30;;;;;;;8.00;2.80;;;;;;;20.86;40.02;100717.20;131098;1251;108640;-73
2023/05/26 13:57:35;;;;;;;3.80;2.10;;;;;;;20.90;40.59;100710.52;131308;1252;107578;-74
2023/05/26 14:00:41;;;;;;;6.30;2.40;;;;;;;21.01;41.13;100700.91;131322;1265;107288;-74
2023/05/26 14:03:47;;;;;;;5.90;2.50;;;;;;;21.08;40.31;100701.68;131430;1251;108753;-74
2023/05/26 14:06:53;;;;;;;5.50;2.40;;;;;;;21.00;39.77;100700.38;131338;1253;107391;-74
2023/05/26 14:09:58;;;;;;;9.30;2.60;;;;;;;20.93;40.60;100699.59;131353;1265;107519;-76
2023/05/26 14:13:04;;;;;;;6.70;2.50;;;;;;;20.94;39.92;100699.96;131413;1252;108574;-76
2023/05/26 14:16:10;;;;;;;6.20;2.40;;;;;;;21.00;40.57;100701.04;131187;1250;107207;-71
2023/05/26 14:19:15;;;;;;;5.90;2.40;;;;;;;21.00;39.87;100702.80;131491;1249;107357;-75